Time;durP1;ratioP1;P1;durP2;ratioP2;P2;SDS_P1;SDS_P2;PMS_P1;PMS_P2;Temp;Humidity;BMP_temperature;BMP_pressure;BME280_temperature;BME280_humidity;BME280_pressure;Samples;Min_cycle;Max_cycle;Signal;HPM_P1;HPM_P2
2021/10/14 00:02:21;;;;;;;136.87;129.30;;;;;;;;;;5055612;28;20456;-68
2021/10/14 00:04:48;;;;;;;135.17;127.67;;;;;;;;;;5056842;28;20455;-69
2021/10/14 00:07:15;;;;;;;130.63;123.23;;;;;;;;;;5070840;28;20459;-68
2021/10/14 00:09:43;;;;;;;130.07;122.87;;;;;;;;;;5071781;28;20443;-68
2021/10/14 00:12:10;;;;;;;128.27;121.07;;;;;;;;;;5071858;28;20446;-68
2021/10/14 00:14:38;;;;;;;126.37;119.27;;;;;;;;;;5063438;28;20456;-68
2021/10/14 00:17:05;;;;;;;125.33;118.13;;;;;;;;;;5051509;28;20946;-68
2021/10/14 00:19:32;;;;;;;126.93;119.63;;;;;;;;;;5064623;28;20489;-66
2021/10/14 00:22:00;;;;;;;126.93;119.53;;;;;;;;;;5071477;28;20513;-70
2021/10/14 00:24:27;;;;;;;133.10;125.60;;;;;;;;;;5070872;28;20820;-68
2021/10/14 00:26:54;;;;;;;130.60;122.80;;;;;;;;;;5071351;28;20458;-69
2021/10/14 00:29:21;;;;;;;129.93;122.53;;;;;;;;;;5064388;28;20471;-67
2021/10/14 00:31:49;;;;;;;128.07;120.57;;;;;;;;;;5071221;28;20451;-68
2021/10/14 00:34:16;;;;;;;133.20;125.50;;;;;;;;;;5066059;28;20453;-70
2021/10/14 00:36:44;;;;;;;130.77;123.37;;;;;;;;;;5078309;28;20832;-68
2021/10/14 00:39:11;;;;;;;129.53;122.03;;;;;;;;;;5071114;28;20483;-68
2021/10/14 00:41:38;;;;;;;134.90;127.10;;;;;;;;;;5071383;28;20930;-67
2021/10/14 00:44:05;;;;;;;132.40;124.47;;;;;;;;;;5070683;28;20450;-67
2021/10/14 00:46:32;;;;;;;134.17;126.50;;;;;;;;;;5071354;28;20450;-68
2021/10/14 00:49:01;;;;;;;132.10;124.40;;;;;;;;;;5069933;28;20838;-66
2021/10/14 00:51:28;;;;;;;132.37;124.30;;;;;;;;;;5068209;28;20454;-67
2021/10/14 00:53:55;;;;;;;131.67;123.87;;;;;;;;;;5070738;28;20459;-67
2021/10/14 00:56:23;;;;;;;133.27;125.47;;;;;;;;;;5054510;28;20459;-67
2021/10/14 00:58:50;;;;;;;134.10;126.20;;;;;;;;;;5054161;28;20482;-67
2021/10/14 01:01:18;;;;;;;130.70;122.90;;;;;;;;;;5070313;28;20455;-67
2021/10/14 01:03:45;;;;;;;129.83;122.23;;;;;;;;;;5074741;28;20458;-69
2021/10/14 01:06:13;;;;;;;137.63;129.60;;;;;;;;;;5075109;28;20446;-68
2021/10/14 01:08:41;;;;;;;134.13;126.30;;;;;;;;;;5073875;28;20553;-66
2021/10/14 01:11:10;;;;;;;136.17;127.87;;;;;;;;;;5055726;28;20448;-69
2021/10/14 01:13:37;;;;;;;137.30;129.20;;;;;;;;;;5054892;28;20448;-70
2021/10/14 01:16:05;;;;;;;139.57;131.17;;;;;;;;;;5069046;28;20440;-67
2021/10/14 01:18:32;;;;;;;139.07;130.67;;;;;;;;;;5054456;28;20467;-67
2021/10/14 01:21:00;;;;;;;140.73;132.40;;;;;;;;;;5072767;28;20447;-69
2021/10/14 01:23:27;;;;;;;135.43;127.03;;;;;;;;;;5054723;28;20450;-70
2021/10/14 01:25:54;;;;;;;132.07;124.03;;;;;;;;;;5071566;28;20458;-68
2021/10/14 01:28:21;;;;;;;132.67;124.37;;;;;;;;;;5072925;28;21001;-69
2021/10/14 01:30:49;;;;;;;136.33;127.80;;;;;;;;;;5071948;28;20458;-68
2021/10/14 01:33:16;;;;;;;132.53;124.33;;;;;;;;;;5074286;28;20954;-68
2021/10/14 01:35:44;;;;;;;134.20;125.70;;;;;;;;;;5072946;28;20515;-69
2021/10/14 01:38:12;;;;;;;131.63;123.23;;;;;;;;;;5072759;28;20542;-68
2021/10/14 01:40:39;;;;;;;136.23;127.60;;;;;;;;;;5074059;28;20482;-68
2021/10/14 01:43:06;;;;;;;135.03;126.30;;;;;;;;;;5073605;28;20974;-71
2021/10/14 01:45:33;;;;;;;133.53;125.23;;;;;;;;;;5073623;28;20454;-68
2021/10/14 01:48:00;;;;;;;125.53;117.63;;;;;;;;;;5073512;28;20996;-67
2021/10/14 01:50:27;;;;;;;127.07;118.87;;;;;;;;;;5073723;28;20432;-68
2021/10/14 01:52:55;;;;;;;129.73;121.10;;;;;;;;;;5059486;28;20942;-67
2021/10/14 01:55:23;;;;;;;121.70;113.90;;;;;;;;;;5073252;28;20508;-67
2021/10/14 01:57:50;;;;;;;123.13;113.93;;;;;;;;;;5073184;28;20490;-69
2021/10/14 02:00:17;;;;;;;125.30;117.10;;;;;;;;;;5072680;28;20479;-68
2021/10/14 02:02:44;;;;;;;122.90;114.70;;;;;;;;;;5073027;28;20447;-67
2021/10/14 02:05:12;;;;;;;121.33;113.77;;;;;;;;;;5073340;28;20446;-67
2021/10/14 02:07:39;;;;;;;124.97;116.83;;;;;;;;;;5073163;28;20473;-67
2021/10/14 02:10:06;;;;;;;121.70;113.87;;;;;;;;;;5072572;28;20443;-67
2021/10/14 02:12:35;;;;;;;121.53;113.63;;;;;;;;;;5073679;28;20450;-67
2021/10/14 02:15:02;;;;;;;118.13;110.63;;;;;;;;;;5072112;28;20455;-67
2021/10/14 02:17:29;;;;;;;119.00;111.50;;;;;;;;;;5073363;28;20478;-66
2021/10/14 02:19:56;;;;;;;117.47;109.77;;;;;;;;;;5072677;28;20486;-67
2021/10/14 02:22:23;;;;;;;110.60;102.90;;;;;;;;;;5072588;28;20819;-66
2021/10/14 02:24:50;;;;;;;118.53;110.53;;;;;;;;;;5071379;28;20447;-66
2021/10/14 02:27:18;;;;;;;115.17;107.30;;;;;;;;;;5072924;28;20543;-67
2021/10/14 02:29:46;;;;;;;118.83;111.03;;;;;;;;;;5072562;28;20818;-66
2021/10/14 02:32:13;;;;;;;115.27;107.53;;;;;;;;;;5068281;28;20487;-67
2021/10/14 02:34:40;;;;;;;111.10;103.60;;;;;;;;;;5052657;28;20954;-66
2021/10/14 02:37:07;;;;;;;108.47;101.27;;;;;;;;;;5068033;28;20443;-67
2021/10/14 02:39:34;;;;;;;103.90;96.87;;;;;;;;;;5072954;28;20486;-67
2021/10/14 02:42:01;;;;;;;114.13;106.73;;;;;;;;;;5059617;28;20454;-67
2021/10/14 02:44:28;;;;;;;111.80;104.50;;;;;;;;;;5052865;28;20459;-67
2021/10/14 02:46:57;;;;;;;113.33;105.90;;;;;;;;;;5069487;28;20819;-67
2021/10/14 02:49:24;;;;;;;116.17;108.47;;;;;;;;;;5052452;28;20476;-66
2021/10/14 02:51:51;;;;;;;112.63;104.83;;;;;;;;;;5072308;28;20447;-67
2021/10/14 02:54:18;;;;;;;110.27;102.67;;;;;;;;;;5073672;28;20446;-66
2021/10/14 02:56:45;;;;;;;115.10;107.10;;;;;;;;;;5073907;28;20549;-67
2021/10/14 02:59:12;;;;;;;110.90;103.40;;;;;;;;;;5072553;28;20973;-67
2021/10/14 03:01:40;;;;;;;109.60;101.83;;;;;;;;;;5066207;28;20451;-67
2021/10/14 03:04:08;;;;;;;111.47;103.40;;;;;;;;;;5072272;28;20941;-67
2021/10/14 03:06:35;;;;;;;113.37;105.30;;;;;;;;;;5072054;28;20459;-67
2021/10/14 03:09:02;;;;;;;106.83;99.23;;;;;;;;;;5057374;28;20478;-67
2021/10/14 03:11:29;;;;;;;106.83;99.13;;;;;;;;;;5057647;28;20454;-66
2021/10/14 03:13:56;;;;;;;112.03;103.37;;;;;;;;;;5073443;28;20454;-65
2021/10/14 03:16:24;;;;;;;112.70;104.17;;;;;;;;;;5073355;28;20454;-67
2021/10/14 03:18:51;;;;;;;112.97;104.50;;;;;;;;;;5071996;28;21024;-66
2021/10/14 03:21:20;;;;;;;113.23;104.87;;;;;;;;;;5071820;28;20514;-66
2021/10/14 03:23:47;;;;;;;113.60;104.90;;;;;;;;;;5072408;28;20455;-66
2021/10/14 03:26:14;;;;;;;115.73;107.40;;;;;;;;;;5071200;28;20470;-67
2021/10/14 03:28:41;;;;;;;109.17;101.03;;;;;;;;;;5079688;22;20497;-68
2021/10/14 03:31:08;;;;;;;110.13;102.33;;;;;;;;;;5060357;28;20455;-65
2021/10/14 03:33:36;;;;;;;110.70;103.00;;;;;;;;;;5070998;28;20443;-67
2021/10/14 03:36:03;;;;;;;112.77;104.70;;;;;;;;;;5069317;28;20454;-65
2021/10/14 03:38:31;;;;;;;123.67;115.37;;;;;;;;;;5073768;28;20445;-66
2021/10/14 03:40:58;;;;;;;118.07;110.10;;;;;;;;;;5089236;28;20482;-66
2021/10/14 03:43:25;;;;;;;121.27;112.97;;;;;;;;;;5092059;28;20445;-66
2021/10/14 03:45:53;;;;;;;118.57;110.27;;;;;;;;;;5062832;28;20458;-66
2021/10/14 03:48:20;;;;;;;115.30;107.23;;;;;;;;;;5051775;28;20444;-66
2021/10/14 03:50:47;;;;;;;114.10;106.30;;;;;;;;;;5066016;28;20474;-65
2021/10/14 03:53:14;;;;;;;116.57;108.60;;;;;;;;;;5071551;28;20443;-65
2021/10/14 03:55:42;;;;;;;116.37;108.67;;;;;;;;;;5084132;28;20457;-65
2021/10/14 03:58:09;;;;;;;108.30;100.97;;;;;;;;;;5092156;28;20473;-65
2021/10/14 04:00:36;;;;;;;111.83;104.23;;;;;;;;;;5083563;28;20482;-65
2021/10/14 04:03:04;;;;;;;112.13;104.30;;;;;;;;;;5071385;28;20964;-68
2021/10/14 04:05:31;;;;;;;116.73;108.73;;;;;;;;;;5070871;28;20446;-70
2021/10/14 04:07:58;;;;;;;110.23;102.63;;;;;;;;;;5071244;28;20803;-68
2021/10/14 04:10:25;;;;;;;113.70;106.20;;;;;;;;;;5071544;28;20463;-66
2021/10/14 04:12:53;;;;;;;101.03;93.93;;;;;;;;;;5071412;28;20446;-68
2021/10/14 04:15:21;;;;;;;98.37;91.40;;;;;;;;;;5074818;28;20944;-67
2021/10/14 04:17:48;;;;;;;95.67;88.77;;;;;;;;;;5091575;28;20446;-66
2021/10/14 04:20:15;;;;;;;95.80;88.90;;;;;;;;;;5085209;28;20973;-66
2021/10/14 04:22:42;;;;;;;91.10;84.50;;;;;;;;;;5071519;28;20450;-67
2021/10/14 04:25:10;;;;;;;95.10;88.50;;;;;;;;;;5070737;28;20458;-66
2021/10/14 04:27:37;;;;;;;91.03;84.53;;;;;;;;;;5071065;28;20928;-67
2021/10/14 04:30:06;;;;;;;97.93;91.33;;;;;;;;;;5080833;28;20485;-66
2021/10/14 04:32:33;;;;;;;94.50;88.10;;;;;;;;;;5091421;28;20446;-66
2021/10/14 04:35:00;;;;;;;95.37;88.77;;;;;;;;;;5087149;28;20446;-69
2021/10/14 04:37:28;;;;;;;97.60;91.00;;;;;;;;;;5092200;28;20446;-66
2021/10/14 04:39:55;;;;;;;99.73;93.03;;;;;;;;;;5086697;28;20489;-68
2021/10/14 04:42:22;;;;;;;94.37;87.73;;;;;;;;;;5074589;28;20453;-66
2021/10/14 04:44:49;;;;;;;91.50;85.10;;;;;;;;;;5074669;28;20450;-67
2021/10/14 04:47:20;;;;;;;94.50;87.93;;;;;;;;;;5074989;28;20449;-66
2021/10/14 04:49:48;;;;;;;97.30;90.50;;;;;;;;;;5078169;28;20473;-69
2021/10/14 04:52:15;;;;;;;98.23;91.53;;;;;;;;;;5095055;28;20446;-65
2021/10/14 04:54:42;;;;;;;99.87;93.37;;;;;;;;;;5089833;28;20830;-66
2021/10/14 04:57:09;;;;;;;172.17;160.07;;;;;;;;;;5095062;28;20445;-68
2021/10/14 04:59:36;;;;;;;115.77;108.67;;;;;;;;;;5090227;28;20984;-66
2021/10/14 05:02:03;;;;;;;95.70;89.30;;;;;;;;;;5074640;28;20451;-67
2021/10/14 05:04:32;;;;;;;98.90;92.30;;;;;;;;;;5074241;28;20443;-66
2021/10/14 05:06:59;;;;;;;101.97;95.37;;;;;;;;;;5054228;28;20820;-66
2021/10/14 05:09:26;;;;;;;102.13;95.67;;;;;;;;;;5055371;28;20467;-71
2021/10/14 05:11:53;;;;;;;96.87;90.40;;;;;;;;;;5074443;28;20439;-66
2021/10/14 05:14:20;;;;;;;99.43;92.93;;;;;;;;;;5074471;28;20446;-69
2021/10/14 05:16:47;;;;;;;99.87;93.47;;;;;;;;;;5073803;28;20504;-69
2021/10/14 05:19:14;;;;;;;97.13;91.03;;;;;;;;;;5074249;28;20867;-66
2021/10/14 05:21:43;;;;;;;96.73;90.33;;;;;;;;;;5080631;28;20490;-67
2021/10/14 05:24:10;;;;;;;98.37;91.97;;;;;;;;;;5069210;28;20972;-65
2021/10/14 05:26:37;;;;;;;96.73;90.37;;;;;;;;;;5073895;28;20446;-66
2021/10/14 05:29:04;;;;;;;101.40;94.80;;;;;;;;;;5076083;28;20992;-66
2021/10/14 05:31:32;;;;;;;105.47;98.77;;;;;;;;;;5088422;28;21149;-66
2021/10/14 05:33:59;;;;;;;105.20;98.43;;;;;;;;;;5074532;28;20447;-67
2021/10/14 05:36:26;;;;;;;117.67;110.70;;;;;;;;;;5093481;28;21080;-68
2021/10/14 05:38:54;;;;;;;111.40;104.60;;;;;;;;;;5062187;28;21013;-65
2021/10/14 05:41:22;;;;;;;111.00;103.67;;;;;;;;;;5074294;28;20482;-66
2021/10/14 05:43:49;;;;;;;109.63;102.27;;;;;;;;;;5073755;28;20459;-66
2021/10/14 05:46:16;;;;;;;123.80;116.40;;;;;;;;;;5073440;28;20989;-66
2021/10/14 05:48:43;;;;;;;113.97;106.67;;;;;;;;;;5072823;28;20474;-66
2021/10/14 05:51:10;;;;;;;112.77;105.27;;;;;;;;;;5090018;28;20458;-68
2021/10/14 05:53:37;;;;;;;118.17;110.23;;;;;;;;;;5081662;28;20467;-66
2021/10/14 05:56:06;;;;;;;128.07;119.80;;;;;;;;;;5072941;28;20818;-67
2021/10/14 05:58:33;;;;;;;116.23;108.53;;;;;;;;;;5071000;28;20451;-66
2021/10/14 06:01:01;;;;;;;110.17;102.77;;;;;;;;;;5071046;28;20502;-67
2021/10/14 06:03:28;;;;;;;115.30;107.90;;;;;;;;;;5072538;28;20438;-67
2021/10/14 06:05:55;;;;;;;139.33;130.03;;;;;;;;;;5072444;28;20454;-66
2021/10/14 06:08:22;;;;;;;122.07;114.37;;;;;;;;;;5073594;28;20458;-66
2021/10/14 06:10:49;;;;;;;152.00;142.63;;;;;;;;;;5072721;28;20447;-67
2021/10/14 06:13:20;;;;;;;201.23;189.90;;;;;;;;;;5072940;28;20459;-68
2021/10/14 06:15:47;;;;;;;192.30;181.43;;;;;;;;;;5072047;28;20457;-69
2021/10/14 06:18:14;;;;;;;198.93;188.07;;;;;;;;;;5064509;28;20970;-67
2021/10/14 06:20:41;;;;;;;188.47;177.83;;;;;;;;;;5068486;28;20475;-67
2021/10/14 06:23:08;;;;;;;148.37;140.40;;;;;;;;;;5073163;28;20454;-67
2021/10/14 06:25:35;;;;;;;140.43;133.00;;;;;;;;;;5081578;28;20453;-67
2021/10/14 06:28:02;;;;;;;127.40;121.00;;;;;;;;;;5093421;28;20455;-66
2021/10/14 06:30:32;;;;;;;138.80;131.53;;;;;;;;;;5089337;28;20474;-66
2021/10/14 06:32:59;;;;;;;145.93;138.20;;;;;;;;;;5080072;28;20873;-66
2021/10/14 06:35:26;;;;;;;154.63;145.97;;;;;;;;;;5076317;28;20968;-66
2021/10/14 06:37:55;;;;;;;164.77;155.47;;;;;;;;;;5055711;28;20444;-65
2021/10/14 06:40:22;;;;;;;193.13;183.07;;;;;;;;;;5054022;28;20471;-66
2021/10/14 06:42:49;;;;;;;204.23;193.13;;;;;;;;;;5074889;28;20454;-63
2021/10/14 06:45:16;;;;;;;235.07;222.57;;;;;;;;;;5090306;28;20450;-64
2021/10/14 06:47:44;;;;;;;272.80;258.67;;;;;;;;;;5072458;28;20455;-66
2021/10/14 06:50:12;;;;;;;305.87;289.30;;;;;;;;;;5072161;28;20476;-67
2021/10/14 06:52:39;;;;;;;316.77;299.97;;;;;;;;;;5073228;28;20447;-64
2021/10/14 06:55:06;;;;;;;351.13;331.33;;;;;;;;;;5072377;28;20451;-68
2021/10/14 06:57:33;;;;;;;363.03;341.73;;;;;;;;;;5072758;28;20447;-63
2021/10/14 07:00:00;;;;;;;389.50;364.83;;;;;;;;;;5072194;28;20470;-64
2021/10/14 07:02:27;;;;;;;414.10;387.80;;;;;;;;;;5072213;28;20483;-64
2021/10/14 07:04:56;;;;;;;444.27;413.23;;;;;;;;;;5071420;28;20823;-64
2021/10/14 07:07:23;;;;;;;467.07;434.47;;;;;;;;;;5092592;28;20442;-64
2021/10/14 07:09:50;;;;;;;517.50;478.00;;;;;;;;;;5092219;28;20465;-67
2021/10/14 07:12:17;;;;;;;543.03;499.10;;;;;;;;;;5072023;28;20819;-65
2021/10/14 07:14:45;;;;;;;564.90;518.17;;;;;;;;;;5075973;28;20461;-65
2021/10/14 07:17:12;;;;;;;583.37;534.17;;;;;;;;;;5072052;28;20945;-64
2021/10/14 07:19:39;;;;;;;592.40;541.07;;;;;;;;;;5069795;28;20482;-65
2021/10/14 07:22:07;;;;;;;635.67;581.43;;;;;;;;;;5073116;28;20479;-63
2021/10/14 07:24:35;;;;;;;665.70;606.50;;;;;;;;;;5071670;28;20459;-65
2021/10/14 07:27:02;;;;;;;651.20;602.50;;;;;;;;;;5071101;28;20462;-63
2021/10/14 07:29:30;;;;;;;660.73;607.93;;;;;;;;;;5078948;28;20509;-63
2021/10/14 07:31:57;;;;;;;689.47;633.47;;;;;;;;;;5092555;28;20464;-63
2021/10/14 07:34:24;;;;;;;666.40;612.70;;;;;;;;;;5079753;28;20458;-63
2021/10/14 07:36:51;;;;;;;662.30;609.20;;;;;;;;;;5071775;28;20450;-63
2021/10/14 07:39:20;;;;;;;677.13;623.43;;;;;;;;;;5080750;28;20466;-62
2021/10/14 07:41:47;;;;;;;681.13;627.83;;;;;;;;;;5092228;28;20482;-65
2021/10/14 07:44:14;;;;;;;665.97;614.30;;;;;;;;;;5080831;28;20459;-62
2021/10/14 07:46:41;;;;;;;731.73;683.53;;;;;;;;;;5071778;28;20454;-68
2021/10/14 07:49:08;;;;;;;690.97;636.93;;;;;;;;;;5078809;28;20476;-66
2021/10/14 07:51:36;;;;;;;711.33;657.20;;;;;;;;;;5091736;28;20442;-65
2021/10/14 07:54:03;;;;;;;705.77;659.57;;;;;;;;;;5081985;28;20536;-66
2021/10/14 07:56:32;;;;;;;696.97;651.37;;;;;;;;;;5087759;28;20451;-66
2021/10/14 07:58:59;;;;;;;641.90;597.90;;;;;;;;;;5071172;28;20481;-64
2021/10/14 08:01:26;;;;;;;599.83;558.03;;;;;;;;;;5071621;28;20475;-66
2021/10/14 08:03:53;;;;;;;550.73;512.20;;;;;;;;;;5073839;28;20459;-66
2021/10/14 08:06:20;;;;;;;530.43;494.17;;;;;;;;;;5091341;28;20817;-64
2021/10/14 08:08:47;;;;;;;490.20;455.30;;;;;;;;;;5088528;28;20837;-66
2021/10/14 08:11:15;;;;;;;523.17;488.47;;;;;;;;;;5071344;28;20450;-67
2021/10/14 08:13:43;;;;;;;512.53;478.67;;;;;;;;;;5071679;28;20968;-67
2021/10/14 08:16:10;;;;;;;489.50;456.23;;;;;;;;;;5075437;28;20450;-66
2021/10/14 08:18:37;;;;;;;451.50;419.13;;;;;;;;;;5082974;28;20554;-67
2021/10/14 08:21:05;;;;;;;479.73;447.53;;;;;;;;;;5096143;28;20473;-66
2021/10/14 08:23:32;;;;;;;462.60;431.60;;;;;;;;;;5095521;28;20442;-67
2021/10/14 08:25:59;;;;;;;458.43;427.60;;;;;;;;;;5095391;28;21056;-66
2021/10/14 08:28:27;;;;;;;476.53;447.17;;;;;;;;;;5077192;28;20457;-67
2021/10/14 08:30:55;;;;;;;486.17;455.00;;;;;;;;;;5083548;28;20959;-66
2021/10/14 08:33:23;;;;;;;443.00;413.83;;;;;;;;;;5075140;28;20447;-66
2021/10/14 08:35:50;;;;;;;455.90;426.43;;;;;;;;;;5074936;28;20443;-68
2021/10/14 08:38:17;;;;;;;454.60;424.40;;;;;;;;;;5069122;28;20447;-67
2021/10/14 08:40:44;;;;;;;471.47;440.40;;;;;;;;;;5074978;28;20442;-70
2021/10/14 08:43:14;;;;;;;498.13;468.90;;;;;;;;;;5076376;28;20486;-62
2021/10/14 08:45:42;;;;;;;398.90;375.27;;;;;;;;;;5081695;28;20545;-68
2021/10/14 08:48:10;;;;;;;329.67;308.70;;;;;;;;;;5094618;28;20453;-66
2021/10/14 08:50:39;;;;;;;332.67;312.07;;;;;;;;;;5086987;28;20467;-66
2021/10/14 08:53:06;;;;;;;306.90;287.17;;;;;;;;;;5074975;28;20446;-67
2021/10/14 08:55:35;;;;;;;319.03;299.63;;;;;;;;;;5074323;28;20443;-66
2021/10/14 08:58:02;;;;;;;284.23;265.60;;;;;;;;;;5074628;28;20446;-66
2021/10/14 09:00:29;;;;;;;335.60;314.13;;;;;;;;;;5073705;28;20472;-66
2021/10/14 09:02:56;;;;;;;326.50;306.30;;;;;;;;;;5074903;28;20474;-66
2021/10/14 09:05:24;;;;;;;280.37;262.40;;;;;;;;;;5087156;28;20453;-66
2021/10/14 09:07:52;;;;;;;289.63;271.83;;;;;;;;;;5074696;28;20446;-66
2021/10/14 09:10:19;;;;;;;291.17;273.13;;;;;;;;;;5074225;28;21004;-66
2021/10/14 09:12:47;;;;;;;297.07;278.17;;;;;;;;;;5074479;28;20484;-66
2021/10/14 09:15:15;;;;;;;297.93;279.50;;;;;;;;;;5073282;28;20957;-66
2021/10/14 09:17:43;;;;;;;312.20;293.07;;;;;;;;;;5073960;28;20958;-66
2021/10/14 09:20:25;;;;;;;288.97;270.87;;;;;;;;;;5083363;28;20847;-65
2021/10/14 09:22:53;;;;;;;289.10;270.63;;;;;;;;;;5082264;28;20470;-66
2021/10/14 09:25:28;;;;;;;302.07;282.83;;;;;;;;;;5080126;28;20450;-66
2021/10/14 09:28:01;;;;;;;300.87;281.40;;;;;;;;;;5074303;28;20708;-66
2021/10/14 09:30:28;;;;;;;308.03;288.77;;;;;;;;;;5080533;22;20496;-65
2021/10/14 09:32:55;;;;;;;305.73;286.03;;;;;;;;;;5054257;28;20443;-65
2021/10/14 09:35:26;;;;;;;350.73;327.73;;;;;;;;;;5053688;28;20451;-65
2021/10/14 09:37:53;;;;;;;379.93;355.50;;;;;;;;;;5053944;28;20448;-64
2021/10/14 09:40:27;;;;;;;363.03;339.13;;;;;;;;;;5054493;28;20478;-67
2021/10/14 09:42:56;;;;;;;396.77;370.43;;;;;;;;;;5054050;28;20830;-65
2021/10/14 09:45:26;;;;;;;391.87;365.73;;;;;;;;;;5054291;28;20459;-64
2021/10/14 09:48:08;;;;;;;393.43;367.97;;;;;;;;;;5053924;28;20914;-64
2021/10/14 09:50:38;;;;;;;374.30;349.60;;;;;;;;;;5051373;28;20479;-64
2021/10/14 09:53:06;;;;;;;358.87;336.10;;;;;;;;;;5054026;28;20450;-64
2021/10/14 09:55:34;;;;;;;340.87;318.13;;;;;;;;;;5054190;28;20451;-64
2021/10/14 09:58:02;;;;;;;329.70;308.40;;;;;;;;;;5054156;28;20448;-64
2021/10/14 10:00:30;;;;;;;327.93;306.33;;;;;;;;;;5053617;28;20525;-64
2021/10/14 10:02:58;;;;;;;318.63;298.23;;;;;;;;;;5053694;28;20550;-64
2021/10/14 10:05:25;;;;;;;312.03;290.70;;;;;;;;;;5053672;28;20448;-65
2021/10/14 10:07:54;;;;;;;315.00;295.00;;;;;;;;;;5053371;28;20969;-64
2021/10/14 10:10:23;;;;;;;301.70;281.60;;;;;;;;;;5053470;28;20462;-64
2021/10/14 10:12:51;;;;;;;304.20;284.23;;;;;;;;;;5053843;28;20847;-64
2021/10/14 10:15:33;;;;;;;315.80;295.50;;;;;;;;;;5053317;28;20825;-69
2021/10/14 10:18:00;;;;;;;284.70;266.40;;;;;;;;;;5053226;28;20443;-65
2021/10/14 10:20:39;;;;;;;260.37;243.47;;;;;;;;;;5058825;28;20501;-65
2021/10/14 10:23:07;;;;;;;252.60;235.60;;;;;;;;;;5073419;28;20509;-66
2021/10/14 10:25:38;;;;;;;239.67;222.73;;;;;;;;;;5072986;28;20446;-65
2021/10/14 10:28:07;;;;;;;262.47;245.37;;;;;;;;;;5072973;28;20450;-68
2021/10/14 10:30:36;;;;;;;292.60;272.00;;;;;;;;;;5073025;28;20485;-66
2021/10/14 10:33:04;;;;;;;271.67;252.97;;;;;;;;;;5063072;28;20452;-65
2021/10/14 10:35:42;;;;;;;318.53;296.73;;;;;;;;;;5059836;28;20453;-72
2021/10/14 10:38:18;;;;;;;339.77;317.50;;;;;;;;;;5073520;28;20865;-71
2021/10/14 10:40:45;;;;;;;339.13;315.43;;;;;;;;;;5060517;28;21100;-68
2021/10/14 10:43:14;;;;;;;366.43;340.83;;;;;;;;;;5057997;28;20480;-66
2021/10/14 10:45:45;;;;;;;383.50;356.63;;;;;;;;;;5057035;28;20462;-65
2021/10/14 10:48:12;;;;;;;367.27;341.07;;;;;;;;;;5065808;28;20829;-64
2021/10/14 10:50:50;;;;;;;384.73;357.47;;;;;;;;;;5072447;28;20474;-68
2021/10/14 10:53:21;;;;;;;351.53;325.87;;;;;;;;;;5072475;28;20454;-63
2021/10/14 10:55:49;;;;;;;364.47;337.57;;;;;;;;;;5072664;28;20426;-70
2021/10/14 10:58:17;;;;;;;357.23;331.43;;;;;;;;;;5071776;28;20508;-70
2021/10/14 11:00:46;;;;;;;367.07;339.87;;;;;;;;;;5064129;28;20469;-69
2021/10/14 11:03:17;;;;;;;357.37;333.03;;;;;;;;;;5072629;28;20483;-71
2021/10/14 11:05:46;;;;;;;339.03;314.73;;;;;;;;;;5071822;28;20969;-69
2021/10/14 11:08:16;;;;;;;325.90;302.80;;;;;;;;;;5072497;28;20532;-69
2021/10/14 11:10:45;;;;;;;296.13;274.73;;;;;;;;;;5072411;28;20482;-66
2021/10/14 11:13:13;;;;;;;332.03;308.53;;;;;;;;;;5064831;28;20444;-66
2021/10/14 11:15:40;;;;;;;373.17;347.60;;;;;;;;;;5051958;28;20482;-69
2021/10/14 11:18:08;;;;;;;424.97;395.47;;;;;;;;;;5052109;28;20888;-69
2021/10/14 11:20:35;;;;;;;430.97;403.13;;;;;;;;;;5052202;28;20474;-69
2021/10/14 11:23:04;;;;;;;422.90;394.50;;;;;;;;;;5052193;28;20487;-68
2021/10/14 11:25:31;;;;;;;427.13;396.87;;;;;;;;;;5051613;28;20444;-65
2021/10/14 11:28:03;;;;;;;409.20;381.77;;;;;;;;;;5052299;28;20447;-67
2021/10/14 11:30:39;;;;;;;528.47;488.27;;;;;;;;;;5051002;28;20491;-72
2021/10/14 11:33:11;;;;;;;514.17;475.07;;;;;;;;;;5062175;28;20447;-67
2021/10/14 11:35:38;;;;;;;523.83;484.23;;;;;;;;;;5051621;28;20447;-72
2021/10/14 11:38:12;;;;;;;534.77;492.20;;;;;;;;;;5041712;28;20474;-69
2021/10/14 11:40:40;;;;;;;538.37;497.47;;;;;;;;;;5039509;28;20475;-70
2021/10/14 11:43:09;;;;;;;540.17;497.93;;;;;;;;;;5051864;28;20570;-69
2021/10/14 11:45:43;;;;;;;531.47;492.37;;;;;;;;;;5052252;28;20448;-68
2021/10/14 11:48:25;;;;;;;521.83;482.20;;;;;;;;;;5052025;28;20444;-69
2021/10/14 11:51:01;;;;;;;509.37;471.67;;;;;;;;;;5041452;28;20482;-69
2021/10/14 11:53:28;;;;;;;501.93;464.53;;;;;;;;;;5041144;28;20448;-69
2021/10/14 11:55:59;;;;;;;516.97;478.67;;;;;;;;;;5051089;28;20443;-69
2021/10/14 11:58:28;;;;;;;502.97;461.40;;;;;;;;;;5054101;28;20439;-69
2021/10/14 12:00:58;;;;;;;524.83;485.83;;;;;;;;;;5056317;28;20464;-69
2021/10/14 12:03:25;;;;;;;508.03;469.23;;;;;;;;;;5056449;28;20490;-69
2021/10/14 12:05:52;;;;;;;552.10;509.07;;;;;;;;;;5055193;28;20448;-72
2021/10/14 12:08:21;;;;;;;515.07;475.37;;;;;;;;;;5051301;28;20828;-69
2021/10/14 12:10:54;;;;;;;538.50;496.27;;;;;;;;;;5051375;28;20478;-71
2021/10/14 12:13:24;;;;;;;546.17;502.13;;;;;;;;;;5050572;28;20538;-72
2021/10/14 12:15:53;;;;;;;546.87;504.50;;;;;;;;;;5051001;28;20832;-69
2021/10/14 12:18:29;;;;;;;537.23;495.00;;;;;;;;;;5051372;28;20460;-70
2021/10/14 12:20:56;;;;;;;545.33;502.33;;;;;;;;;;5031533;28;20814;-68
2021/10/14 12:23:28;;;;;;;540.60;499.90;;;;;;;;;;5030976;28;20492;-69
2021/10/14 12:26:09;;;;;;;539.37;498.80;;;;;;;;;;5057596;28;20542;-69
2021/10/14 12:28:36;;;;;;;510.77;473.17;;;;;;;;;;5070486;28;20447;-71
2021/10/14 12:31:09;;;;;;;546.27;503.67;;;;;;;;;;5071111;28;20479;-70
2021/10/14 12:33:37;;;;;;;532.07;492.17;;;;;;;;;;5064905;28;20810;-67
2021/10/14 12:36:04;;;;;;;540.37;499.17;;;;;;;;;;5043208;28;20506;-71
2021/10/14 12:38:35;;;;;;;556.47;514.27;;;;;;;;;;5031341;28;20452;-72
2021/10/14 12:41:03;;;;;;;521.93;483.13;;;;;;;;;;5031287;28;20479;-67
2021/10/14 12:43:37;;;;;;;523.37;484.50;;;;;;;;;;5038941;28;20475;-67
2021/10/14 12:46:22;;;;;;;536.67;496.90;;;;;;;;;;5050957;28;20453;-69
2021/10/14 12:48:53;;;;;;;511.93;473.20;;;;;;;;;;5050875;28;20501;-69
2021/10/14 12:51:24;;;;;;;541.83;499.90;;;;;;;;;;5050804;28;20781;-71
2021/10/14 12:53:56;;;;;;;522.40;484.80;;;;;;;;;;5050850;28;20447;-67
2021/10/14 12:56:33;;;;;;;533.10;492.23;;;;;;;;;;5050131;28;20941;-66
2021/10/14 12:59:03;;;;;;;543.73;501.73;;;;;;;;;;5052574;28;20435;-66
2021/10/14 13:01:31;;;;;;;530.30;491.13;;;;;;;;;;5054672;28;20451;-67
2021/10/14 13:03:58;;;;;;;478.27;442.57;;;;;;;;;;5063789;28;20569;-66
2021/10/14 13:06:26;;;;;;;509.93;472.27;;;;;;;;;;5074496;28;20470;-69
2021/10/14 13:08:57;;;;;;;496.40;459.97;;;;;;;;;;5074124;28;20902;-67
2021/10/14 13:11:29;;;;;;;515.67;478.03;;;;;;;;;;5074310;28;20973;-67
2021/10/14 13:13:56;;;;;;;533.20;493.80;;;;;;;;;;5060913;28;20867;-67
2021/10/14 13:16:23;;;;;;;421.33;392.40;;;;;;;;;;5054250;28;20487;-67
2021/10/14 13:18:52;;;;;;;457.70;421.83;;;;;;;;;;5053810;28;20451;-67
2021/10/14 13:21:19;;;;;;;487.67;451.43;;;;;;;;;;5053360;28;20447;-66
2021/10/14 13:23:46;;;;;;;441.37;410.27;;;;;;;;;;5044804;28;21006;-69
2021/10/14 13:26:13;;;;;;;459.70;426.00;;;;;;;;;;5054389;28;20458;-67
2021/10/14 13:28:41;;;;;;;472.77;438.87;;;;;;;;;;5054326;28;20449;-67
2021/10/14 13:31:09;;;;;;;446.53;414.23;;;;;;;;;;5053488;28;20464;-69
2021/10/14 13:33:36;;;;;;;450.63;416.70;;;;;;;;;;5053891;28;20981;-66
2021/10/14 13:36:06;;;;;;;490.97;453.47;;;;;;;;;;5053909;28;20444;-69
2021/10/14 13:38:34;;;;;;;417.50;389.73;;;;;;;;;;5053914;28;20551;-66
2021/10/14 13:41:03;;;;;;;566.97;524.00;;;;;;;;;;5059266;28;20520;-70
2021/10/14 13:43:33;;;;;;;527.77;488.33;;;;;;;;;;5074617;28;20482;-67
2021/10/14 13:46:00;;;;;;;389.40;363.10;;;;;;;;;;5073308;28;20447;-66
2021/10/14 13:48:27;;;;;;;421.80;394.20;;;;;;;;;;5056781;28;20475;-69
2021/10/14 13:50:54;;;;;;;409.77;382.97;;;;;;;;;;5053865;28;20471;-67
2021/10/14 13:53:23;;;;;;;442.57;413.73;;;;;;;;;;5053602;28;20443;-69
2021/10/14 13:55:50;;;;;;;452.00;424.07;;;;;;;;;;5053855;28;20451;-72
2021/10/14 13:58:17;;;;;;;464.37;436.17;;;;;;;;;;5053434;28;20444;-71
2021/10/14 14:00:45;;;;;;;440.50;412.00;;;;;;;;;;5053623;28;20483;-67